createdAt,value
2023-11-22T00:01:05.929Z,1.33
2023-11-22T00:03:33.163Z,1.37
2023-11-22T00:06:00.275Z,1.43
2023-11-22T00:08:27.338Z,1.10
2023-11-22T00:10:54.379Z,1.40
2023-11-22T00:13:21.497Z,1.60
2023-11-22T00:15:51.421Z,1.60
2023-11-22T00:18:18.559Z,1.30
2023-11-22T00:20:48.823Z,1.20
2023-11-22T00:23:16.115Z,1.07
2023-11-22T00:25:43.313Z,1.40
2023-11-22T00:28:10.353Z,1.00
2023-11-22T00:30:37.421Z,1.50
2023-11-22T00:33:05.804Z,1.10
2023-11-22T00:35:32.951Z,1.30
2023-11-22T00:38:00.197Z,1.87
2023-11-22T00:40:27.336Z,1.20
2023-11-22T00:42:54.393Z,1.40
2023-11-22T00:45:21.481Z,1.30
2023-11-22T00:47:49.099Z,1.00
2023-11-22T00:50:20.688Z,1.07
2023-11-22T00:52:48.277Z,1.53
2023-11-22T00:55:15.572Z,1.57
2023-11-22T00:57:43.074Z,1.43
2023-11-22T01:00:11.219Z,1.60
2023-11-22T01:02:39.163Z,0.97
2023-11-22T01:05:10.446Z,1.53
2023-11-22T01:07:37.569Z,1.20
2023-11-22T01:10:04.842Z,1.30
2023-11-22T01:12:31.914Z,1.30
2023-11-22T01:14:59.036Z,1.13
2023-11-22T01:17:26.137Z,1.30
2023-11-22T01:19:53.214Z,1.50
2023-11-22T01:22:20.843Z,1.30
2023-11-22T01:24:48.367Z,0.93
2023-11-22T01:27:15.470Z,1.37
2023-11-22T01:29:42.715Z,0.97
2023-11-22T01:32:10.019Z,1.10
2023-11-22T01:34:37.139Z,1.00
2023-11-22T01:37:04.813Z,1.07
2023-11-22T01:39:32.845Z,1.00
2023-11-22T01:42:00.414Z,1.00
2023-11-22T01:44:27.753Z,1.23
2023-11-22T01:46:55.214Z,1.43
2023-11-22T01:49:22.332Z,1.10
2023-11-22T01:51:49.854Z,1.63
2023-11-22T01:54:17.366Z,1.77
2023-11-22T01:56:44.495Z,1.27
2023-11-22T01:59:11.685Z,1.13
2023-11-22T02:01:39.005Z,1.30
2023-11-22T02:04:07.585Z,1.27
2023-11-22T02:06:34.914Z,1.10
2023-11-22T02:09:02.219Z,0.90
2023-11-22T02:11:29.352Z,1.20
2023-11-22T02:13:56.773Z,1.10
2023-11-22T02:16:23.885Z,1.20
2023-11-22T02:18:51.018Z,0.83
2023-11-22T02:21:18.509Z,1.20
2023-11-22T02:23:45.548Z,1.20
2023-11-22T02:26:12.839Z,1.17
2023-11-22T02:28:39.864Z,1.13
2023-11-22T02:31:06.907Z,1.00
2023-11-22T02:33:34.539Z,0.90
2023-11-22T02:36:02.984Z,1.43
2023-11-22T02:38:30.734Z,1.17
2023-11-22T02:40:57.944Z,1.20
2023-11-22T02:43:25.286Z,1.03
2023-11-22T02:45:52.435Z,1.10
2023-11-22T02:48:19.872Z,1.10
2023-11-22T02:50:47.049Z,1.40
2023-11-22T02:53:14.149Z,1.00
2023-11-22T02:55:41.869Z,1.00
2023-11-22T02:58:08.929Z,1.03
2023-11-22T03:00:36.226Z,1.20
2023-11-22T03:03:05.111Z,1.10
2023-11-22T03:05:32.394Z,1.00
2023-11-22T03:07:59.579Z,1.10
2023-11-22T03:10:27.316Z,1.00
2023-11-22T03:12:55.103Z,0.90
2023-11-22T03:15:22.124Z,0.97
2023-11-22T03:17:49.510Z,1.00
2023-11-22T03:20:17.345Z,1.00
2023-11-22T03:22:45.069Z,0.87
2023-11-22T03:25:15.158Z,1.20
2023-11-22T03:27:42.149Z,0.83
2023-11-22T03:30:13.115Z,0.90
2023-11-22T03:32:40.912Z,1.27
2023-11-22T03:35:08.569Z,1.33
2023-11-22T03:37:36.089Z,0.67
2023-11-22T03:40:03.954Z,1.00
2023-11-22T03:42:31.048Z,1.07
2023-11-22T03:45:00.180Z,1.17
2023-11-22T03:47:27.374Z,1.50
2023-11-22T03:49:54.533Z,1.40
2023-11-22T03:52:21.561Z,1.00
2023-11-22T03:54:48.594Z,1.40
2023-11-22T03:57:15.652Z,0.90
2023-11-22T03:59:44.116Z,1.07
2023-11-22T04:02:11.499Z,1.20
2023-11-22T04:04:40.780Z,1.43
2023-11-22T04:07:08.403Z,0.70
2023-11-22T04:09:35.554Z,0.90
2023-11-22T04:12:02.535Z,1.10
2023-11-22T04:14:29.617Z,0.90
2023-11-22T04:16:57.240Z,1.30
2023-11-22T04:19:24.674Z,1.20
2023-11-22T04:21:51.970Z,0.73
2023-11-22T04:24:19.040Z,1.10
2023-11-22T04:26:48.947Z,1.03
2023-11-22T04:29:17.547Z,0.90
2023-11-22T04:31:44.843Z,0.73
2023-11-22T04:34:11.871Z,1.00
2023-11-22T04:36:39.861Z,1.00
2023-11-22T04:39:08.304Z,0.90
2023-11-22T04:41:36.015Z,1.00
2023-11-22T04:44:03.511Z,1.20
2023-11-22T04:46:30.805Z,0.73
2023-11-22T04:48:58.570Z,0.80
2023-11-22T04:51:25.756Z,1.00
2023-11-22T04:53:52.849Z,0.87
2023-11-22T04:56:19.982Z,1.10
2023-11-22T04:58:47.141Z,1.30
2023-11-22T05:01:16.300Z,0.97
2023-11-22T05:03:44.800Z,0.90
2023-11-22T05:06:11.904Z,0.80
2023-11-22T05:08:39.017Z,0.97
2023-11-22T05:11:06.227Z,0.97
2023-11-22T05:13:33.319Z,0.70
2023-11-22T05:16:01.972Z,1.20
2023-11-22T05:18:29.176Z,0.97
2023-11-22T05:20:56.323Z,1.00
2023-11-22T05:23:24.131Z,0.97
2023-11-22T05:25:51.288Z,0.90
2023-11-22T05:28:18.366Z,1.00
2023-11-22T05:30:45.929Z,0.93
2023-11-22T05:33:13.005Z,0.90
2023-11-22T05:35:40.833Z,1.00
2023-11-22T05:38:08.072Z,1.00
2023-11-22T05:40:35.201Z,0.83
2023-11-22T05:43:02.682Z,0.83
2023-11-22T05:45:29.942Z,1.23
2023-11-22T05:47:57.258Z,1.10
2023-11-22T05:50:24.484Z,1.07
2023-11-22T05:52:51.577Z,1.20
2023-11-22T05:55:19.289Z,1.00
2023-11-22T05:57:46.611Z,0.93
2023-11-22T06:00:15.321Z,1.00
2023-11-22T06:02:42.459Z,1.10
2023-11-22T06:05:10.916Z,1.10
2023-11-22T06:07:38.161Z,0.93
2023-11-22T06:10:05.382Z,1.10
2023-11-22T06:12:32.432Z,0.93
2023-11-22T06:14:59.452Z,1.63
2023-11-22T06:17:26.515Z,1.50
2023-11-22T06:19:53.596Z,1.80
2023-11-22T06:22:20.879Z,1.30
2023-11-22T06:24:49.380Z,1.50
2023-11-22T06:27:16.860Z,1.83
2023-11-22T06:29:47.970Z,1.40
2023-11-22T06:32:15.020Z,1.33
2023-11-22T06:34:43.067Z,1.43
2023-11-22T06:37:10.251Z,1.67
2023-11-22T06:39:38.382Z,1.50
2023-11-22T06:42:05.585Z,1.70
2023-11-22T06:44:33.291Z,1.80
2023-11-22T06:47:00.378Z,1.40
2023-11-22T06:49:27.454Z,1.47
2023-11-22T06:51:54.607Z,1.70
2023-11-22T06:54:21.869Z,1.60
2023-11-22T06:56:49.172Z,1.37
2023-11-22T06:59:16.494Z,1.77
2023-11-22T07:01:43.617Z,1.63
2023-11-22T07:04:11.028Z,1.60
2023-11-22T07:06:38.723Z,1.43
2023-11-22T07:09:06.329Z,1.73
2023-11-22T07:11:33.399Z,1.60
2023-11-22T07:14:00.431Z,1.33
2023-11-22T07:16:27.524Z,1.37
2023-11-22T07:18:54.611Z,1.40
2023-11-22T07:21:21.934Z,1.30
2023-11-22T07:23:50.749Z,1.63
2023-11-22T07:26:20.597Z,1.10
2023-11-22T07:28:47.727Z,1.17
2023-11-22T07:31:15.181Z,1.50
2023-11-22T07:33:42.933Z,1.57
2023-11-22T07:36:10.494Z,2.57
2023-11-22T07:38:39.241Z,1.47
2023-11-22T07:41:08.161Z,1.43
2023-11-22T07:43:35.382Z,1.50
2023-11-22T07:46:02.437Z,1.30
2023-11-22T07:48:29.531Z,1.60
2023-11-22T07:50:57.107Z,1.80
2023-11-22T07:53:30.185Z,1.53
2023-11-22T07:55:57.761Z,1.43
2023-11-22T07:58:24.916Z,1.13
2023-11-22T08:00:52.826Z,1.27
2023-11-22T08:03:24.627Z,1.63
2023-11-22T08:05:53.298Z,1.40
2023-11-22T08:08:20.914Z,1.50
2023-11-22T08:10:49.774Z,1.60
2023-11-22T08:13:20.587Z,1.33
2023-11-22T08:15:47.784Z,1.70
2023-11-22T08:18:17.452Z,1.10
2023-11-22T08:20:45.309Z,1.40
2023-11-22T08:23:14.108Z,1.17
2023-11-22T08:25:43.176Z,1.30
2023-11-22T08:28:11.719Z,1.40
2023-11-22T08:30:38.732Z,1.60
2023-11-22T08:33:05.880Z,1.00
2023-11-22T08:35:33.290Z,1.30
2023-11-22T08:38:01.829Z,1.60
2023-11-22T08:40:28.844Z,1.63
2023-11-22T08:42:56.136Z,1.27
2023-11-22T08:45:23.221Z,1.30
2023-11-22T08:47:52.982Z,1.47
2023-11-22T08:50:20.980Z,1.20
2023-11-22T08:52:54.842Z,1.50
2023-11-22T08:55:25.884Z,1.50
2023-11-22T08:57:52.969Z,1.90
2023-11-22T09:00:23.433Z,1.40
2023-11-22T09:02:50.734Z,1.03
2023-11-22T09:05:17.896Z,1.57
2023-11-22T09:07:45.591Z,1.20
2023-11-22T09:10:16.179Z,1.47
2023-11-22T09:12:44.973Z,1.17
2023-11-22T09:15:14.522Z,1.50
2023-11-22T09:17:47.215Z,1.13
2023-11-22T09:20:16.324Z,1.17
2023-11-22T09:22:48.706Z,1.30
2023-11-22T09:25:17.606Z,1.10
2023-11-22T09:27:47.993Z,1.13
2023-11-22T09:30:36.083Z,1.37
2023-11-22T09:33:06.498Z,1.30
2023-11-22T09:35:34.365Z,1.30
2023-11-22T09:38:01.750Z,1.20
2023-11-22T09:40:30.052Z,1.33
2023-11-22T09:42:58.870Z,1.27
2023-11-22T09:45:26.777Z,1.13
2023-11-22T09:47:54.588Z,1.67
2023-11-22T09:50:25.650Z,1.27
2023-11-22T09:52:56.731Z,1.23
2023-11-22T09:55:26.058Z,0.97
2023-11-22T09:57:55.270Z,1.83
2023-11-22T10:00:25.444Z,1.40
2023-11-22T10:02:52.696Z,0.97
2023-11-22T10:05:21.030Z,1.43
2023-11-22T10:07:49.096Z,1.63
2023-11-22T10:10:20.384Z,1.30
2023-11-22T10:12:48.029Z,1.20
2023-11-22T10:15:15.535Z,1.30
2023-11-22T10:17:42.832Z,1.43
2023-11-22T10:20:12.339Z,1.30
2023-11-22T10:22:49.603Z,1.20
2023-11-22T10:25:19.635Z,1.47
2023-11-22T10:27:48.081Z,1.27
2023-11-22T10:30:18.421Z,1.17
2023-11-22T10:32:45.726Z,1.27
2023-11-22T10:35:15.759Z,1.90
2023-11-22T10:37:46.516Z,1.43
2023-11-22T10:40:14.250Z,1.20
2023-11-22T10:42:44.619Z,1.10
2023-11-22T10:45:11.808Z,1.23
2023-11-22T10:47:40.085Z,2.03
2023-11-22T10:50:09.411Z,1.40
2023-11-22T10:52:37.637Z,1.20
2023-11-22T10:55:06.947Z,1.53
2023-11-22T10:57:34.777Z,1.23
2023-11-22T11:00:08.468Z,1.50
2023-11-22T11:02:43.228Z,1.27
2023-11-22T11:05:17.090Z,1.17
2023-11-22T11:07:45.903Z,1.03
2023-11-22T11:10:16.974Z,1.30
2023-11-22T11:12:49.866Z,1.43
2023-11-22T11:15:18.310Z,1.60
2023-11-22T11:17:49.029Z,1.23
2023-11-22T11:20:18.327Z,1.20
2023-11-22T11:22:46.712Z,1.10
2023-11-22T11:25:15.616Z,1.20
2023-11-22T11:27:42.760Z,1.20
2023-11-22T11:30:28.545Z,1.60
2023-11-22T11:32:56.083Z,1.30
2023-11-22T11:35:39.214Z,1.40
2023-11-22T11:38:06.337Z,1.60
2023-11-22T11:40:35.568Z,1.33
2023-11-22T11:43:03.049Z,1.30
2023-11-22T11:45:31.105Z,1.20
2023-11-22T11:47:58.266Z,1.27
2023-11-22T11:50:25.494Z,1.13
2023-11-22T11:52:52.521Z,0.80
2023-11-22T11:55:19.658Z,1.10
2023-11-22T11:57:47.817Z,1.43
2023-11-22T12:00:15.432Z,1.40
2023-11-22T12:02:43.066Z,1.27
2023-11-22T12:05:10.760Z,1.60
2023-11-22T12:07:38.379Z,1.10
2023-11-22T12:10:07.563Z,1.40
2023-11-22T12:12:36.081Z,1.03
2023-11-22T12:15:04.008Z,1.07
2023-11-22T12:17:31.644Z,1.33
2023-11-22T12:20:16.052Z,1.30
2023-11-22T12:22:43.629Z,1.00
2023-11-22T12:25:12.589Z,1.17
2023-11-22T12:27:46.911Z,1.10
2023-11-22T12:30:49.735Z,1.07
2023-11-22T12:33:19.161Z,1.20
2023-11-22T12:35:46.284Z,1.00
2023-11-22T12:38:13.592Z,0.83
2023-11-22T12:40:46.247Z,1.10
2023-11-22T12:43:14.988Z,1.40
2023-11-22T12:45:43.004Z,1.30
2023-11-22T12:48:27.037Z,1.20
2023-11-22T12:50:55.215Z,1.10
2023-11-22T12:53:22.569Z,0.90
2023-11-22T12:55:50.862Z,0.90
2023-11-22T12:58:18.596Z,1.30
2023-11-22T13:00:46.440Z,1.17
2023-11-22T13:03:14.424Z,1.47
2023-11-22T13:05:45.285Z,1.30
2023-11-22T13:08:14.205Z,1.47
2023-11-22T13:10:41.820Z,1.13
2023-11-22T13:13:11.688Z,1.07
2023-11-22T13:15:39.030Z,1.00
2023-11-22T13:18:07.614Z,0.97
2023-11-22T13:20:34.819Z,1.03
2023-11-22T13:23:01.960Z,1.10
2023-11-22T13:25:28.972Z,1.30
2023-11-22T13:27:57.541Z,0.90
2023-11-22T13:30:26.011Z,1.30
2023-11-22T13:32:59.524Z,1.30
2023-11-22T13:35:30.909Z,1.30
2023-11-22T13:38:02.847Z,1.43
2023-11-22T13:40:33.808Z,1.20
2023-11-22T13:43:00.962Z,1.00
2023-11-22T13:45:28.191Z,1.40
2023-11-22T13:48:04.605Z,1.37
2023-11-22T13:50:31.867Z,1.20
2023-11-22T13:52:59.746Z,1.50
2023-11-22T13:55:26.978Z,1.40
2023-11-22T13:57:54.675Z,1.50
2023-11-22T14:00:23.698Z,1.43
2023-11-22T14:02:56.826Z,1.40
2023-11-22T14:05:27.936Z,1.50
2023-11-22T14:07:55.382Z,1.67
2023-11-22T14:10:23.493Z,1.33
2023-11-22T14:12:51.302Z,1.60
2023-11-22T14:15:18.365Z,1.93
2023-11-22T14:17:45.500Z,1.60
2023-11-22T14:20:14.589Z,1.63
2023-11-22T14:22:43.853Z,1.80
2023-11-22T14:25:16.692Z,1.50
2023-11-22T14:27:44.816Z,1.67
2023-11-22T14:30:15.046Z,1.60
2023-11-22T14:32:45.678Z,1.60
2023-11-22T14:35:13.771Z,1.80
2023-11-22T14:37:41.036Z,1.50
2023-11-22T14:40:15.267Z,1.50
2023-11-22T14:42:47.552Z,1.37
2023-11-22T14:45:15.241Z,1.80
2023-11-22T14:47:43.404Z,2.03
2023-11-22T14:50:16.317Z,1.53
2023-11-22T14:52:45.035Z,2.00
2023-11-22T14:55:13.451Z,1.80
2023-11-22T14:57:40.742Z,1.90
2023-11-22T15:00:13.944Z,1.87
2023-11-22T15:02:43.632Z,1.73
2023-11-22T15:05:12.312Z,2.33
2023-11-22T15:07:42.193Z,2.17
2023-11-22T15:10:10.687Z,1.70
2023-11-22T15:12:38.250Z,1.70
2023-11-22T15:15:05.569Z,2.00
2023-11-22T15:17:32.911Z,1.60
2023-11-22T15:20:00.069Z,1.60
2023-11-22T15:22:27.238Z,2.00
2023-11-22T15:24:54.698Z,2.10
2023-11-22T15:27:21.766Z,2.47
2023-11-22T15:29:48.827Z,2.60
2023-11-22T15:32:15.841Z,2.83
2023-11-22T15:34:43.692Z,2.40
2023-11-22T15:37:12.851Z,3.13
2023-11-22T15:39:39.948Z,2.60
2023-11-22T15:42:07.359Z,2.47
2023-11-22T15:44:34.883Z,2.30
2023-11-22T15:47:05.896Z,2.07
2023-11-22T15:49:33.464Z,2.30
2023-11-22T15:52:01.512Z,2.27
2023-11-22T15:54:28.570Z,2.40
2023-11-22T15:56:55.715Z,2.53
2023-11-22T15:59:22.781Z,2.17
2023-11-22T16:01:49.927Z,2.27
2023-11-22T16:04:18.145Z,2.60
2023-11-22T16:06:47.689Z,1.90
2023-11-22T16:09:15.862Z,2.23
2023-11-22T16:11:42.988Z,2.97
2023-11-22T16:14:11.233Z,2.80
2023-11-22T16:16:40.408Z,3.23
2023-11-22T16:19:07.644Z,3.10
2023-11-22T16:21:35.101Z,1.97
2023-11-22T16:24:02.225Z,2.90
2023-11-22T16:26:29.342Z,2.83
2023-11-22T16:28:57.399Z,2.30
2023-11-22T16:31:24.586Z,2.77
2023-11-22T16:33:51.883Z,2.90
2023-11-22T16:36:21.751Z,5.37
2023-11-22T16:38:49.718Z,5.23
2023-11-22T16:41:19.338Z,4.80
2023-11-22T16:43:46.555Z,5.20
2023-11-22T16:46:13.579Z,4.23
2023-11-22T16:48:40.728Z,3.80
2023-11-22T16:51:07.800Z,3.60
2023-11-22T16:53:35.024Z,3.73
2023-11-22T16:56:02.094Z,3.50
2023-11-22T16:58:29.070Z,3.40
2023-11-22T17:00:58.078Z,3.00
2023-11-22T17:03:25.310Z,3.30
2023-11-22T17:05:52.846Z,2.90
2023-11-22T17:08:20.335Z,3.53
2023-11-22T17:10:48.214Z,3.77
2023-11-22T17:13:16.798Z,3.13
2023-11-22T17:15:46.033Z,3.30
2023-11-22T17:18:13.872Z,3.20
2023-11-22T17:20:41.219Z,3.50
2023-11-22T17:23:08.253Z,3.17
2023-11-22T17:25:35.348Z,3.17
2023-11-22T17:28:02.353Z,2.73
2023-11-22T17:30:29.598Z,2.83
2023-11-22T17:32:56.798Z,2.57
2023-11-22T17:35:24.657Z,3.00
2023-11-22T17:37:53.866Z,3.00
2023-11-22T17:40:21.605Z,3.13
2023-11-22T17:42:48.808Z,2.97
2023-11-22T17:45:16.705Z,2.93
2023-11-22T17:47:44.457Z,3.20
2023-11-22T17:50:12.361Z,3.20
2023-11-22T17:52:39.537Z,4.10
2023-11-22T17:55:06.741Z,3.43
2023-11-22T17:57:33.827Z,2.90
2023-11-22T18:00:01.042Z,2.70
2023-11-22T18:02:28.587Z,3.03
2023-11-22T18:04:55.621Z,3.63
2023-11-22T18:07:23.317Z,3.20
2023-11-22T18:09:51.741Z,3.10
2023-11-22T18:12:18.919Z,3.00
2023-11-22T18:14:46.765Z,3.13
2023-11-22T18:17:14.048Z,3.60
2023-11-22T18:19:41.201Z,2.93
2023-11-22T18:22:08.752Z,2.70
2023-11-22T18:24:36.502Z,2.67
2023-11-22T18:27:03.634Z,3.13
2023-11-22T18:29:30.709Z,2.43
2023-11-22T18:31:59.572Z,2.60
2023-11-22T18:34:33.171Z,3.17
2023-11-22T18:37:01.998Z,2.70
2023-11-22T18:39:30.355Z,2.50
2023-11-22T18:41:57.418Z,3.07
2023-11-22T18:44:24.520Z,2.80
2023-11-22T18:46:51.564Z,3.43
2023-11-22T18:49:20.702Z,1.87
2023-11-22T18:51:47.781Z,2.50
2023-11-22T18:54:14.813Z,2.83
2023-11-22T18:56:45.016Z,2.40
2023-11-22T18:59:12.375Z,2.40
2023-11-22T19:01:39.714Z,1.87
2023-11-22T19:04:10.239Z,2.50
2023-11-22T19:06:37.393Z,2.93
2023-11-22T19:09:09.669Z,2.50
2023-11-22T19:11:36.907Z,2.17
2023-11-22T19:14:04.393Z,2.30
2023-11-22T19:16:31.765Z,2.33
2023-11-22T19:18:58.866Z,2.43
2023-11-22T19:21:25.928Z,2.40
2023-11-22T19:23:54.799Z,2.90
2023-11-22T19:26:25.358Z,2.40
2023-11-22T19:28:52.694Z,2.50
2023-11-22T19:31:21.530Z,2.60
2023-11-22T19:33:48.990Z,2.10
2023-11-22T19:36:22.430Z,2.23
2023-11-22T19:38:50.404Z,2.20
2023-11-22T19:41:17.785Z,2.30
2023-11-22T19:43:44.924Z,2.47
2023-11-22T19:46:12.059Z,2.70
2023-11-22T19:48:39.267Z,2.23
2023-11-22T19:51:07.064Z,2.47
2023-11-22T19:53:37.292Z,2.30
2023-11-22T19:56:05.873Z,3.10
2023-11-22T19:58:33.038Z,2.30
2023-11-22T20:01:00.360Z,2.00
2023-11-22T20:03:27.656Z,1.97
2023-11-22T20:05:54.895Z,2.80
2023-11-22T20:08:22.555Z,2.27
2023-11-22T20:10:50.126Z,2.50
2023-11-22T20:13:17.728Z,2.20
2023-11-22T20:15:45.001Z,2.30
2023-11-22T20:18:12.241Z,2.20
2023-11-22T20:20:39.610Z,2.20
2023-11-22T20:23:07.379Z,2.00
2023-11-22T20:25:34.588Z,2.63
2023-11-22T20:28:02.235Z,2.70
2023-11-22T20:30:29.572Z,2.23
2023-11-22T20:32:56.825Z,2.10
2023-11-22T20:35:23.973Z,1.90
2023-11-22T20:37:51.058Z,2.07
2023-11-22T20:40:18.290Z,2.50
2023-11-22T20:42:45.423Z,2.00
2023-11-22T20:45:12.553Z,2.67
2023-11-22T20:47:42.834Z,1.93
2023-11-22T20:50:10.352Z,2.33
2023-11-22T20:52:37.824Z,2.10
2023-11-22T20:55:09.603Z,2.40
2023-11-22T20:57:40.153Z,2.10
2023-11-22T21:00:08.135Z,2.23
2023-11-22T21:02:38.799Z,2.03
2023-11-22T21:05:08.069Z,2.40
2023-11-22T21:07:35.301Z,2.00
2023-11-22T21:10:02.346Z,2.07
2023-11-22T21:12:29.377Z,2.40
2023-11-22T21:14:57.189Z,2.00
2023-11-22T21:17:33.449Z,2.07
2023-11-22T21:20:10.236Z,2.23
2023-11-22T21:22:38.400Z,2.40
2023-11-22T21:25:09.022Z,2.20
2023-11-22T21:27:36.059Z,1.90
2023-11-22T21:30:03.568Z,2.30
2023-11-22T21:32:30.789Z,2.67
2023-11-22T21:34:57.956Z,2.10
2023-11-22T21:37:25.019Z,1.90
2023-11-22T21:39:52.096Z,2.17
2023-11-22T21:42:19.136Z,1.80
2023-11-22T21:44:46.152Z,2.00
2023-11-22T21:47:13.298Z,2.50
2023-11-22T21:49:40.389Z,2.47
2023-11-22T21:52:07.548Z,2.20
2023-11-22T21:54:34.645Z,2.30
2023-11-22T21:57:01.968Z,2.37
2023-11-22T21:59:29.019Z,2.00
2023-11-22T22:01:56.195Z,2.07
2023-11-22T22:04:23.454Z,2.60
2023-11-22T22:06:50.590Z,2.07
2023-11-22T22:09:20.380Z,2.50
2023-11-22T22:11:48.220Z,2.00
2023-11-22T22:14:15.324Z,2.20
2023-11-22T22:16:42.600Z,1.87
2023-11-22T22:19:10.421Z,2.00
2023-11-22T22:21:37.757Z,2.30
2023-11-22T22:24:04.979Z,2.63
2023-11-22T22:26:32.015Z,2.50
2023-11-22T22:28:59.079Z,2.00
2023-11-22T22:31:26.238Z,2.07
2023-11-22T22:33:53.336Z,2.20
2023-11-22T22:36:20.620Z,2.17
2023-11-22T22:38:47.758Z,2.20
2023-11-22T22:41:18.427Z,2.70
2023-11-22T22:43:45.522Z,2.07
2023-11-22T22:46:12.899Z,2.37
2023-11-22T22:48:41.414Z,2.63
2023-11-22T22:51:12.698Z,2.00
2023-11-22T22:53:40.891Z,2.30
2023-11-22T22:56:08.130Z,1.80
2023-11-22T22:58:38.382Z,2.23
2023-11-22T23:01:05.867Z,1.90
2023-11-22T23:03:33.576Z,1.90
2023-11-22T23:06:00.858Z,2.60
2023-11-22T23:08:28.582Z,2.13
2023-11-22T23:10:56.765Z,2.00
2023-11-22T23:13:23.887Z,1.97
2023-11-22T23:15:50.914Z,2.40
2023-11-22T23:18:18.010Z,2.37
2023-11-22T23:20:49.721Z,2.30
2023-11-22T23:23:18.208Z,2.37
2023-11-22T23:25:45.575Z,2.07
2023-11-22T23:28:12.728Z,1.90
2023-11-22T23:30:39.941Z,2.07
2023-11-22T23:33:07.917Z,1.93
2023-11-22T23:35:35.230Z,2.40
2023-11-22T23:38:02.430Z,2.20
2023-11-22T23:40:30.252Z,2.47
2023-11-22T23:42:58.691Z,2.30
2023-11-22T23:45:25.818Z,2.30
2023-11-22T23:47:53.068Z,2.40
2023-11-22T23:50:20.296Z,2.50
2023-11-22T23:52:48.553Z,2.40
2023-11-22T23:55:15.784Z,2.50
2023-11-22T23:57:43.122Z,2.60
